Time;durP1;ratioP1;P1;durP2;ratioP2;P2;SDS_P1;SDS_P2;PMS_P1;PMS_P2;Temp;Humidity;BMP_temperature;BMP_pressure;BME280_temperature;BME280_humidity;BME280_pressure;Samples;Min_cycle;Max_cycle;Signal;HPM_P1;HPM_P2
2022/03/23 00:00:21;;;;;;;38.70;17.70;;;;;;;4.50;52.48;101040.33;103579;1300;24310;-30
2022/03/23 00:02:47;;;;;;;52.40;22.40;;;;;;;4.46;52.77;101037.23;103598;1301;24215;-25
2022/03/23 00:05:12;;;;;;;49.30;20.90;;;;;;;4.42;52.25;101039.28;103483;1300;24341;-28
2022/03/23 00:07:38;;;;;;;53.70;20.20;;;;;;;4.38;52.21;101040.16;103591;1300;24289;-27
2022/03/23 00:10:04;;;;;;;50.30;22.60;;;;;;;4.32;52.66;101042.20;103353;1302;24304;-30
2022/03/23 00:12:30;;;;;;;42.00;19.90;;;;;;;4.28;52.21;101039.90;103512;1300;24225;-26
2022/03/23 00:14:57;;;;;;;60.10;22.10;;;;;;;4.22;52.37;101036.77;103465;1300;24266;-25
2022/03/23 00:17:22;;;;;;;50.90;20.20;;;;;;;4.20;52.80;101034.39;103562;1300;24260;-26
2022/03/23 00:19:49;;;;;;;53.00;22.00;;;;;;;4.19;53.62;101034.13;103684;1302;24228;-26
2022/03/23 00:22:15;;;;;;;41.80;19.70;;;;;;;4.18;53.16;101031.60;103618;1300;24380;-29
2022/03/23 00:24:40;;;;;;;58.50;24.10;;;;;;;4.17;53.13;101027.34;103513;1300;24314;-30
2022/03/23 00:27:06;;;;;;;57.90;23.40;;;;;;;4.19;53.57;101030.93;103556;1300;24257;-29
2022/03/23 00:29:33;;;;;;;58.70;23.50;;;;;;;4.19;53.17;101023.98;103573;1300;24217;-25
2022/03/23 00:31:58;;;;;;;53.20;22.00;;;;;;;4.17;53.57;101025.59;103533;1300;24229;-28
2022/03/23 00:34:24;;;;;;;57.10;21.50;;;;;;;4.12;53.12;101022.75;103527;1300;24313;-27
2022/03/23 00:36:50;;;;;;;37.30;18.20;;;;;;;4.04;54.08;101022.30;103507;1300;24204;-24
2022/03/23 00:39:16;;;;;;;35.60;16.00;;;;;;;3.96;54.63;101021.35;103565;1300;24471;-28
2022/03/23 00:41:42;;;;;;;32.80;17.30;;;;;;;3.90;53.08;101021.41;103451;1300;24210;-25
2022/03/23 00:44:08;;;;;;;43.20;19.10;;;;;;;3.83;53.34;101019.09;103513;1300;24255;-28
2022/03/23 00:46:33;;;;;;;40.70;21.30;;;;;;;3.71;53.57;101016.10;103513;1300;24305;-27
2022/03/23 00:49:00;;;;;;;60.30;23.70;;;;;;;3.55;53.50;101013.91;103552;1300;24362;-25
2022/03/23 00:51:26;;;;;;;65.70;25.00;;;;;;;3.39;53.87;101011.21;103626;1300;24397;-28
2022/03/23 00:53:52;;;;;;;32.10;16.50;;;;;;;3.23;54.05;101008.73;103626;1300;24367;-27
2022/03/23 00:56:18;;;;;;;41.70;19.40;;;;;;;3.16;53.71;101008.91;103535;1300;24257;-28
2022/03/23 00:58:44;;;;;;;41.40;17.70;;;;;;;3.08;53.68;101006.16;103544;1300;24291;-29
2022/03/23 01:01:11;;;;;;;49.90;21.60;;;;;;;2.97;56.25;101004.81;103588;1300;24422;-28
2022/03/23 01:03:37;;;;;;;62.70;25.50;;;;;;;2.81;57.71;101003.79;103308;1303;24290;-30
2022/03/23 01:06:03;;;;;;;47.70;20.70;;;;;;;2.50;60.51;101005.38;103471;1300;24277;-29
2022/03/23 01:08:29;;;;;;;67.00;24.90;;;;;;;2.21;61.98;101003.98;103563;1300;24249;-30
2022/03/23 01:10:54;;;;;;;88.10;34.50;;;;;;;1.97;58.08;101007.00;103586;1300;24259;-31
2022/03/23 01:13:20;;;;;;;66.90;30.00;;;;;;;1.76;57.69;101005.37;103631;1300;24221;-29
2022/03/23 01:15:46;;;;;;;108.00;31.10;;;;;;;1.65;57.74;101000.46;103518;1300;22529;-27
2022/03/23 01:18:12;;;;;;;99.80;27.20;;;;;;;1.61;57.85;100997.21;103500;1300;24215;-28
2022/03/23 01:20:38;;;;;;;65.60;26.50;;;;;;;1.58;57.47;100991.03;103547;1300;24259;-28
2022/03/23 01:23:04;;;;;;;67.80;29.00;;;;;;;1.57;58.99;100993.40;103558;1300;24365;-27
2022/03/23 01:25:30;;;;;;;65.40;23.70;;;;;;;1.58;58.75;100993.17;103552;1300;24353;-29
2022/03/23 01:27:56;;;;;;;58.30;23.10;;;;;;;1.62;58.51;100990.60;103576;1300;24334;-24
2022/03/23 01:30:23;;;;;;;146.20;68.70;;;;;;;1.65;57.74;100988.47;103577;1300;24271;-28
2022/03/23 01:32:49;;;;;;;140.80;76.40;;;;;;;1.60;57.94;100989.50;103543;1302;25353;-26
2022/03/23 01:35:14;;;;;;;80.50;28.40;;;;;;;1.52;58.06;100985.48;103554;1300;24222;-28
2022/03/23 01:37:40;;;;;;;80.40;30.20;;;;;;;1.45;58.62;100983.61;103563;1300;24238;-27
2022/03/23 01:40:08;;;;;;;100.10;34.20;;;;;;;1.38;60.60;100985.27;103553;1302;22563;-28
2022/03/23 01:42:33;;;;;;;80.00;29.10;;;;;;;1.32;61.60;100986.69;103527;1300;24298;-25
2022/03/23 01:44:59;;;;;;;76.30;28.50;;;;;;;1.26;61.00;100985.33;103522;1302;24264;-28
2022/03/23 01:47:25;;;;;;;64.50;28.50;;;;;;;1.21;59.93;100985.83;103531;1299;24395;-30
2022/03/23 01:49:53;;;;;;;68.40;27.50;;;;;;;1.15;59.25;100982.67;103532;1300;24368;-30
2022/03/23 01:52:22;;;;;;;48.60;22.80;;;;;;;1.09;62.47;100982.33;103605;1300;22724;-26
2022/03/23 01:54:48;;;;;;;54.50;23.60;;;;;;;1.03;63.22;100975.86;103664;1301;22607;-25
2022/03/23 01:57:14;;;;;;;104.30;37.60;;;;;;;1.00;63.94;100974.28;103534;1300;24249;-29
2022/03/23 01:59:40;;;;;;;113.80;35.20;;;;;;;0.99;65.90;100968.95;103599;1300;24247;-26
2022/03/23 02:02:08;;;;;;;120.60;44.90;;;;;;;0.95;67.25;100967.21;103541;1300;24034;-27
2022/03/23 02:04:34;;;;;;;93.40;35.80;;;;;;;0.87;67.34;100969.29;103586;1300;24219;-27
2022/03/23 02:07:00;;;;;;;65.10;30.60;;;;;;;0.78;67.14;100967.39;103579;1300;24344;-25
2022/03/23 02:09:25;;;;;;;65.10;24.90;;;;;;;0.76;67.55;100970.00;103577;1302;24324;-27
2022/03/23 02:11:52;;;;;;;46.50;21.00;;;;;;;0.82;68.71;100968.16;103641;1300;24247;-25
2022/03/23 02:14:17;;;;;;;79.00;33.40;;;;;;;0.89;64.79;100969.00;103561;1300;24219;-28
2022/03/23 02:16:44;;;;;;;105.30;41.00;;;;;;;0.73;60.89;100968.89;103590;1300;24400;-30
2022/03/23 02:19:11;;;;;;;67.40;29.10;;;;;;;0.51;61.81;100962.69;103542;1300;22498;-30
2022/03/23 02:21:36;;;;;;;70.30;31.30;;;;;;;0.37;61.19;100957.92;103541;1300;22998;-25
2022/03/23 02:24:03;;;;;;;67.30;28.60;;;;;;;0.25;61.80;100958.63;103557;1300;22499;-28
2022/03/23 02:26:31;;;;;;;64.80;26.50;;;;;;;0.22;64.89;100962.70;103571;1300;25377;-28
2022/03/23 02:28:58;;;;;;;81.40;40.80;;;;;;;0.17;65.48;100960.72;103527;1300;24252;-28
2022/03/23 02:31:23;;;;;;;89.80;36.40;;;;;;;0.11;63.57;100959.16;103609;1301;24303;-25
2022/03/23 02:33:49;;;;;;;121.00;40.80;;;;;;;0.11;62.86;100958.57;103508;1300;24295;-28
2022/03/23 02:36:15;;;;;;;73.20;29.60;;;;;;;0.11;62.50;100956.50;103534;1300;24104;-26
2022/03/23 02:38:40;;;;;;;88.80;32.40;;;;;;;0.08;62.77;100957.93;103516;1300;24225;-27
2022/03/23 02:41:06;;;;;;;102.30;33.40;;;;;;;0.02;66.21;100954.59;103575;1300;24455;-29
2022/03/23 02:43:31;;;;;;;64.00;25.50;;;;;;;0.00;67.85;100954.12;103560;1303;24214;-28
2022/03/23 02:45:57;;;;;;;61.90;24.00;;;;;;;0.02;67.82;100949.11;103495;1302;24298;-28
2022/03/23 02:48:23;;;;;;;54.00;22.40;;;;;;;-0.01;67.40;100947.86;103489;1303;24236;-25
2022/03/23 02:50:48;;;;;;;53.80;21.80;;;;;;;-0.05;69.24;100947.39;103509;1302;24365;-25
2022/03/23 03:03:14;;;;;;;55.90;20.00;;;;;;;-0.37;65.85;100954.72;103636;1301;24216;-27
2022/03/23 03:05:40;;;;;;;64.30;24.30;;;;;;;-0.41;67.59;100953.19;103562;1302;22502;-28
2022/03/23 03:10:35;;;;;;;69.80;26.80;;;;;;;-0.76;74.12;100959.55;103556;1301;22625;-28
2022/03/23 03:13:01;;;;;;;53.30;23.40;;;;;;;-1.02;76.17;100958.73;103502;1300;24400;-28
2022/03/23 03:15:27;;;;;;;51.50;23.30;;;;;;;-1.16;75.50;100964.60;103549;1300;24212;-28
2022/03/23 03:17:57;;;;;;;46.10;18.00;;;;;;;-1.22;73.69;100962.61;103521;1302;24240;-25
2022/03/23 03:20:23;;;;;;;49.10;21.00;;;;;;;-1.21;75.54;100961.17;103572;1303;22510;-25
2022/03/23 03:22:49;;;;;;;49.80;21.00;;;;;;;-1.16;71.22;100960.89;103692;1303;22500;-27
2022/03/23 03:25:16;;;;;;;70.70;27.20;;;;;;;-1.09;69.17;100956.29;103587;1300;24344;-28
2022/03/23 03:27:42;;;;;;;75.90;25.80;;;;;;;-0.98;68.50;100957.98;103576;1302;22503;-25
2022/03/23 03:30:10;;;;;;;75.60;30.40;;;;;;;-0.81;67.98;100959.34;103531;1302;25347;-28
2022/03/23 03:32:36;;;;;;;73.90;29.70;;;;;;;-0.72;69.07;100952.48;103569;1301;24457;-26
2022/03/23 03:35:02;;;;;;;79.50;29.70;;;;;;;-0.68;68.25;100949.07;103511;1303;22557;-29
2022/03/23 03:37:27;;;;;;;65.00;24.50;;;;;;;-0.65;69.36;100949.08;103490;1300;24426;-26
2022/03/23 03:39:53;;;;;;;89.40;30.00;;;;;;;-0.64;73.04;100943.98;103571;1302;24478;-29
2022/03/23 03:42:19;;;;;;;104.00;38.40;;;;;;;-0.61;71.47;100943.21;103503;1300;24212;-29
2022/03/23 03:44:45;;;;;;;86.50;31.90;;;;;;;-0.63;69.37;100940.71;103526;1303;24288;-26
2022/03/23 03:47:11;;;;;;;80.80;29.90;;;;;;;-0.75;68.02;100937.87;103651;1300;24247;-30
2022/03/23 03:49:38;;;;;;;93.30;29.00;;;;;;;-0.89;70.56;100932.17;103618;1302;22511;-28
2022/03/23 03:52:04;;;;;;;65.40;26.20;;;;;;;-1.01;72.72;100937.58;103574;1302;24313;-28
2022/03/23 03:54:30;;;;;;;77.70;27.70;;;;;;;-1.10;74.10;100933.85;103552;1300;24228;-25
2022/03/23 03:56:56;;;;;;;50.20;24.50;;;;;;;-1.19;73.57;100935.55;103530;1300;24211;-30
2022/03/23 03:59:22;;;;;;;62.00;27.50;;;;;;;-1.23;71.27;100937.55;103543;1302;24481;-28
2022/03/23 04:01:49;;;;;;;88.10;31.90;;;;;;;-1.23;71.54;100934.70;103596;1300;24291;-28
2022/03/23 04:04:16;;;;;;;74.30;28.20;;;;;;;-1.18;71.96;100932.72;103494;1300;24258;-28
2022/03/23 04:06:41;;;;;;;64.00;23.90;;;;;;;-1.16;69.48;100930.66;103487;1301;24218;-25
2022/03/23 04:09:07;;;;;;;60.90;26.10;;;;;;;-1.16;70.15;100928.91;103536;1300;22498;-30
2022/03/23 04:11:33;;;;;;;74.50;28.30;;;;;;;-1.18;70.45;100926.55;103639;1300;22963;-29
2022/03/23 04:13:59;;;;;;;67.70;26.40;;;;;;;-1.18;72.47;100926.55;102858;1303;1023582;-29
2022/03/23 04:16:24;;;;;;;70.00;27.00;;;;;;;-1.15;73.79;100922.50;103510;1301;24242;-29
2022/03/23 04:18:50;;;;;;;59.50;23.00;;;;;;;-1.05;72.38;100922.70;103522;1300;24234;-26
2022/03/23 04:21:16;;;;;;;70.30;25.60;;;;;;;-0.87;73.08;100921.85;103546;1301;24282;-25
2022/03/23 04:23:42;;;;;;;64.50;24.40;;;;;;;-0.65;72.38;100921.52;103597;1303;22987;-29
2022/03/23 04:26:07;;;;;;;57.00;23.60;;;;;;;-0.44;71.00;100919.02;103445;1302;24299;-30
2022/03/23 04:28:33;;;;;;;72.50;21.30;;;;;;;-0.24;70.87;100914.17;103487;1302;24247;-28
2022/03/23 04:30:59;;;;;;;55.10;22.40;;;;;;;-0.12;69.86;100913.99;103547;1302;24347;-28
2022/03/23 04:33:25;;;;;;;62.10;23.90;;;;;;;-0.10;70.76;100915.60;103508;1303;24320;-28
2022/03/23 04:35:51;;;;;;;59.90;24.60;;;;;;;-0.12;70.13;100910.64;103589;1300;24240;-26
2022/03/23 04:38:16;;;;;;;56.90;22.90;;;;;;;-0.09;70.01;100915.08;103503;1301;24371;-25
2022/03/23 04:40:42;;;;;;;63.30;25.10;;;;;;;-0.08;69.74;100914.95;103569;1303;22641;-27
2022/03/23 04:43:08;;;;;;;62.90;28.20;;;;;;;-0.05;68.96;100919.04;103485;1302;22500;-30
2022/03/23 04:45:33;;;;;;;72.40;26.30;;;;;;;-0.05;69.52;100912.67;103569;1300;24219;-25
2022/03/23 04:47:59;;;;;;;61.20;26.80;;;;;;;-0.03;69.58;100916.28;103584;1303;24471;-29
2022/03/23 04:50:25;;;;;;;43.00;20.80;;;;;;;0.00;70.76;100918.05;103713;1300;24284;-29
2022/03/23 04:52:52;;;;;;;38.10;18.00;;;;;;;0.06;71.63;100918.56;103619;1300;24374;-29
2022/03/23 04:55:18;;;;;;;53.00;24.10;;;;;;;0.12;72.21;100916.95;103664;1299;24362;-30
2022/03/23 04:57:43;;;;;;;61.40;24.80;;;;;;;0.27;72.37;100913.09;103606;1299;24192;-29
2022/03/23 05:00:13;;;;;;;64.10;25.40;;;;;;;0.43;70.49;100912.97;103631;1303;24240;-28
2022/03/23 05:02:39;;;;;;;64.70;27.30;;;;;;;0.58;68.86;100910.80;103707;1299;22570;-28
2022/03/23 05:05:06;;;;;;;68.80;26.20;;;;;;;0.72;68.32;100908.34;103523;1302;24245;-27
2022/03/23 05:07:32;;;;;;;69.50;28.30;;;;;;;0.90;67.72;100909.31;103534;1302;24316;-28
2022/03/23 05:09:58;;;;;;;71.60;26.20;;;;;;;1.06;67.67;100904.80;103678;1299;24419;-29
2022/03/23 05:12:24;;;;;;;68.40;25.50;;;;;;;1.14;67.67;100904.24;103560;1302;24214;-32
2022/03/23 05:14:49;;;;;;;70.40;26.80;;;;;;;1.14;68.21;100904.94;103702;1299;24296;-27
2022/03/23 05:17:15;;;;;;;56.90;24.40;;;;;;;1.17;67.95;100901.05;103639;1300;24170;-26
2022/03/23 05:19:41;;;;;;;59.80;23.80;;;;;;;1.18;68.32;100898.19;103544;1300;24205;-26
2022/03/23 05:22:06;;;;;;;52.60;21.10;;;;;;;1.18;68.52;100903.29;103676;1299;24242;-24
2022/03/23 05:24:32;;;;;;;57.00;20.90;;;;;;;1.17;68.37;100901.91;103602;1300;24297;-28
2022/03/23 05:26:58;;;;;;;64.70;28.00;;;;;;;1.22;68.60;100911.69;103537;1302;24249;-29
2022/03/23 05:29:24;;;;;;;76.80;28.40;;;;;;;1.06;69.25;100931.92;103685;1300;24285;-25
2022/03/23 05:31:50;;;;;;;59.30;27.70;;;;;;;0.87;68.59;100935.23;103635;1300;22507;-29
2022/03/23 05:34:15;;;;;;;70.30;25.80;;;;;;;0.72;70.21;100935.69;103712;1300;24208;-26
2022/03/23 05:36:41;;;;;;;71.60;32.20;;;;;;;0.49;71.40;100945.58;103502;1303;24214;-26
2022/03/23 05:39:07;;;;;;;77.10;33.40;;;;;;;0.38;70.81;100942.73;103682;1300;24208;-26
2022/03/23 05:41:32;;;;;;;51.30;24.40;;;;;;;0.26;72.65;100942.02;103527;1303;24221;-25
2022/03/23 05:43:58;;;;;;;63.10;28.90;;;;;;;0.38;72.29;100946.08;103715;1300;22502;-30
2022/03/23 05:46:25;;;;;;;71.60;26.80;;;;;;;0.60;71.26;100950.49;103480;1303;24482;-27
2022/03/23 05:48:53;;;;;;;49.30;24.40;;;;;;;0.73;71.34;100950.60;103507;1302;24196;-26
2022/03/23 05:51:18;;;;;;;58.40;23.80;;;;;;;0.85;71.00;100947.54;103553;1302;24240;-29
2022/03/23 05:53:44;;;;;;;54.90;23.60;;;;;;;1.02;70.88;100947.73;103479;1302;24213;-28
2022/03/23 05:56:10;;;;;;;53.20;27.10;;;;;;;1.19;69.26;100947.88;103484;1302;24364;-28
2022/03/23 05:58:36;;;;;;;73.10;29.20;;;;;;;1.31;68.62;100946.55;103493;1301;24297;-29
2022/03/23 06:01:02;;;;;;;57.40;25.70;;;;;;;1.49;67.71;100947.84;103513;1302;24255;-25
2022/03/23 06:03:28;;;;;;;60.00;27.10;;;;;;;1.73;66.48;100949.31;103555;1302;24253;-25
2022/03/23 06:05:55;;;;;;;70.30;27.60;;;;;;;1.78;67.04;100948.81;103583;1302;24253;-24
2022/03/23 06:08:21;;;;;;;73.40;30.40;;;;;;;1.91;67.01;100946.67;103546;1302;24375;-28
2022/03/23 06:10:47;;;;;;;74.20;30.20;;;;;;;2.00;66.39;100947.48;103498;1302;24354;-29
2022/03/23 06:13:13;;;;;;;81.80;35.00;;;;;;;1.95;66.73;100949.39;103610;1302;24271;-30
2022/03/23 06:15:38;;;;;;;89.00;32.10;;;;;;;2.00;66.56;100952.46;103469;1302;24218;-25
2022/03/23 06:18:04;;;;;;;80.30;33.50;;;;;;;2.05;66.95;100955.79;103493;1302;24215;-27
2022/03/23 06:20:30;;;;;;;82.70;33.90;;;;;;;2.15;66.91;100955.68;103529;1302;24278;-25
2022/03/23 06:22:59;;;;;;;71.50;31.70;;;;;;;2.31;67.40;100954.92;103525;1302;24283;-25
2022/03/23 06:25:26;;;;;;;69.50;28.10;;;;;;;2.53;67.31;100949.99;103541;1302;24396;-25
2022/03/23 06:27:52;;;;;;;77.80;32.30;;;;;;;2.69;67.51;100945.77;103460;1302;24837;-29
2022/03/23 06:30:18;;;;;;;67.50;28.00;;;;;;;2.77;67.91;100947.97;103590;1302;24236;-24
2022/03/23 06:32:44;;;;;;;73.20;31.50;;;;;;;2.97;67.74;100947.63;103450;1302;24220;-25
2022/03/23 06:35:10;;;;;;;53.80;25.20;;;;;;;3.26;68.30;100948.02;103474;1302;24293;-29
2022/03/23 06:37:36;;;;;;;84.90;31.70;;;;;;;3.59;67.71;100946.99;103488;1301;24230;-25
2022/03/23 06:40:03;;;;;;;77.30;30.40;;;;;;;3.78;66.88;100942.09;103429;1302;24260;-28
2022/03/23 06:42:29;;;;;;;70.60;31.00;;;;;;;3.81;66.32;100944.34;103566;1302;22848;-25
2022/03/23 06:44:55;;;;;;;80.00;36.30;;;;;;;3.95;66.24;100943.94;103581;1300;24242;-25
2022/03/23 06:47:21;;;;;;;77.30;34.20;;;;;;;4.15;66.00;100945.27;103587;1300;24244;-26
2022/03/23 06:49:48;;;;;;;78.30;30.90;;;;;;;4.44;65.21;100945.30;103622;1300;24245;-28
2022/03/23 06:52:15;;;;;;;70.70;29.00;;;;;;;4.77;64.88;100949.88;103644;1300;24352;-25
2022/03/23 06:54:41;;;;;;;60.90;31.20;;;;;;;4.96;63.64;100948.34;103560;1303;24215;-24
2022/03/23 06:57:07;;;;;;;79.40;33.00;;;;;;;4.99;63.74;100952.00;103641;1300;24218;-28
2022/03/23 06:59:33;;;;;;;75.50;33.00;;;;;;;5.13;63.94;100951.63;103619;1300;22510;-28
2022/03/23 07:01:58;;;;;;;104.80;34.50;;;;;;;5.26;64.14;100951.64;103763;1299;24647;-25
2022/03/23 07:04:24;;;;;;;70.70;29.20;;;;;;;5.45;64.04;100952.58;103540;1300;24248;-28
2022/03/23 07:06:52;;;;;;;82.00;35.70;;;;;;;5.69;62.76;100952.04;103597;1303;24362;-30
2022/03/23 07:11:47;;;;;;;74.20;33.40;;;;;;;5.88;58.02;100951.50;103543;1301;24406;-24
2022/03/23 07:14:13;;;;;;;63.70;29.30;;;;;;;5.84;57.91;100952.00;103538;1300;22635;-25
2022/03/23 07:16:41;;;;;;;70.60;29.60;;;;;;;5.84;59.10;100948.98;103666;1300;24243;-27
2022/03/23 07:19:07;;;;;;;64.60;30.40;;;;;;;6.14;59.15;100945.04;103552;1300;22678;-28
2022/03/23 07:21:32;;;;;;;81.50;35.40;;;;;;;6.39;58.56;100943.52;103640;1299;24180;-28
2022/03/23 07:23:58;;;;;;;72.50;31.10;;;;;;;6.63;58.78;100944.60;103624;1302;24369;-29
2022/03/23 07:26:24;;;;;;;80.50;35.30;;;;;;;7.06;58.32;100946.73;103531;1300;24393;-25
2022/03/23 07:28:49;;;;;;;68.80;30.60;;;;;;;7.41;58.28;100943.23;103685;1299;24359;-28
2022/03/23 07:31:17;;;;;;;92.90;34.30;;;;;;;7.77;54.29;100941.90;103588;1301;24236;-25
2022/03/23 07:33:42;;;;;;;80.50;35.20;;;;;;;8.15;57.14;100933.77;103581;1299;24149;-24
2022/03/23 07:36:12;;;;;;;65.90;30.80;;;;;;;8.60;56.24;100934.77;103492;1303;24213;-28
2022/03/23 07:38:38;;;;;;;71.50;31.20;;;;;;;8.95;54.91;100938.14;103654;1300;22840;-25
2022/03/23 07:41:05;;;;;;;70.00;32.60;;;;;;;9.30;51.71;100936.15;103465;1300;24366;-24
2022/03/23 07:43:30;;;;;;;88.50;36.20;;;;;;;9.69;51.60;100937.63;103692;1299;24325;-27
2022/03/23 07:45:56;;;;;;;70.60;32.30;;;;;;;10.19;51.27;100933.04;103618;1300;24400;-28
2022/03/23 07:48:23;;;;;;;87.60;36.30;;;;;;;10.47;48.34;100932.84;103684;1298;24346;-30
2022/03/23 07:50:51;;;;;;;67.20;34.70;;;;;;;10.40;47.57;100932.54;103672;1299;24338;-30
2022/03/23 07:53:17;;;;;;;77.60;35.30;;;;;;;10.49;47.08;100936.04;103587;1300;25346;-25
2022/03/23 07:55:43;;;;;;;77.30;38.60;;;;;;;10.49;47.37;100935.14;103534;1303;22505;-28
2022/03/23 07:58:08;;;;;;;67.40;34.90;;;;;;;10.69;46.38;100935.60;103652;1300;24189;-24
2022/03/23 08:00:34;;;;;;;68.40;34.30;;;;;;;10.82;45.67;100934.59;103514;1300;24246;-30
2022/03/23 08:03:00;;;;;;;67.20;31.70;;;;;;;11.03;46.42;100934.17;103510;1300;24240;-27
2022/03/23 08:05:26;;;;;;;72.50;37.20;;;;;;;11.40;45.71;100930.60;103530;1303;24467;-30
2022/03/23 08:07:53;;;;;;;66.30;34.20;;;;;;;11.85;46.08;100927.38;103735;1300;24433;-30
2022/03/23 08:10:19;;;;;;;74.40;37.20;;;;;;;12.19;44.75;100924.84;103666;1300;22505;-28
2022/03/23 08:12:45;;;;;;;80.60;35.00;;;;;;;12.59;43.86;100926.33;103664;1300;24474;-24
2022/03/23 08:15:11;;;;;;;85.30;38.20;;;;;;;12.94;42.89;100922.07;103691;1300;24293;-26
2022/03/23 08:17:38;;;;;;;76.40;38.10;;;;;;;13.25;43.07;100926.02;103649;1300;24371;-24
2022/03/23 08:22:38;;;;;;;88.80;40.00;;;;;;;13.97;41.75;100919.31;103496;1299;24214;-25
2022/03/23 08:25:05;;;;;;;60.70;34.40;;;;;;;13.97;40.22;100918.23;103589;1303;24312;-30
2022/03/23 08:27:31;;;;;;;88.10;42.20;;;;;;;14.13;40.88;100918.67;103533;1302;24279;-28
2022/03/23 08:29:56;;;;;;;81.00;44.50;;;;;;;14.37;40.32;100914.45;103628;1299;24362;-28
2022/03/23 08:32:23;;;;;;;80.20;42.00;;;;;;;14.52;39.44;100916.73;103668;1299;24271;-24
2022/03/23 08:34:49;;;;;;;75.60;41.70;;;;;;;14.38;39.66;100913.34;103703;1300;24237;-25
2022/03/23 08:37:16;;;;;;;76.40;39.50;;;;;;;14.47;39.60;100908.29;103721;1300;24295;-28
2022/03/23 08:39:41;;;;;;;74.90;38.50;;;;;;;14.68;38.99;100914.23;103698;1300;24234;-25
2022/03/23 08:42:07;;;;;;;79.40;40.40;;;;;;;14.93;39.21;100910.63;103417;1302;24178;-27
2022/03/23 08:44:33;;;;;;;67.80;36.10;;;;;;;15.15;39.34;100913.55;103533;1300;24417;-28
2022/03/23 08:46:58;;;;;;;82.90;40.80;;;;;;;15.35;37.96;100911.26;103542;1300;24240;-24
2022/03/23 08:49:24;;;;;;;82.00;41.30;;;;;;;15.60;38.17;100909.47;103576;1302;22497;-23
2022/03/23 08:51:50;;;;;;;78.50;40.00;;;;;;;15.82;38.20;100906.46;103456;1302;24237;-26
2022/03/23 08:54:15;;;;;;;71.10;38.30;;;;;;;16.01;37.15;100901.42;103579;1300;24327;-25
2022/03/23 08:56:41;;;;;;;79.50;40.80;;;;;;;16.21;37.08;100898.98;103598;1301;24259;-30
2022/03/23 08:59:07;;;;;;;74.80;41.60;;;;;;;16.35;37.15;100900.56;103583;1300;24314;-27
2022/03/23 09:01:33;;;;;;;78.80;39.80;;;;;;;16.56;36.51;100899.29;103391;1300;22496;-30
2022/03/23 09:04:03;;;;;;;76.00;41.80;;;;;;;16.72;36.03;100896.49;103565;1300;24350;-30
2022/03/23 09:06:29;;;;;;;93.50;48.90;;;;;;;16.75;35.36;100897.23;103509;1300;24211;-25
2022/03/23 09:08:57;;;;;;;72.80;39.40;;;;;;;16.87;36.09;100895.80;103621;1300;24384;-26
2022/03/23 09:11:22;;;;;;;74.30;39.90;;;;;;;17.07;36.05;100898.66;103520;1300;24250;-26
2022/03/23 09:13:49;;;;;;;61.90;37.50;;;;;;;17.22;35.43;100898.11;103565;1300;24304;-27
2022/03/23 09:16:15;;;;;;;64.70;37.60;;;;;;;17.24;35.59;100893.13;103578;1300;24371;-29
2022/03/23 09:18:41;;;;;;;90.30;44.10;;;;;;;17.38;35.54;100889.41;103471;1301;24185;-29
2022/03/23 09:21:07;;;;;;;84.70;41.80;;;;;;;17.69;35.48;100890.98;103597;1300;24463;-26
2022/03/23 09:23:36;;;;;;;84.50;39.30;;;;;;;17.93;34.64;100887.27;103582;1300;22502;-24
2022/03/23 09:26:03;;;;;;;69.70;38.90;;;;;;;18.09;34.28;100884.64;103523;1300;24257;-25
2022/03/23 09:28:29;;;;;;;58.60;34.10;;;;;;;18.10;33.89;100878.69;103590;1301;24183;-25
2022/03/23 09:30:55;;;;;;;69.60;39.30;;;;;;;18.11;33.84;100872.66;103530;1300;24304;-29
2022/03/23 09:33:22;;;;;;;50.30;33.10;;;;;;;18.42;33.51;100869.75;103583;1300;24215;-24
2022/03/23 09:35:47;;;;;;;68.20;37.30;;;;;;;18.52;33.07;100867.56;103532;1300;24287;-25
2022/03/23 09:38:14;;;;;;;62.30;36.50;;;;;;;18.49;33.05;100863.80;103450;1300;24365;-24
2022/03/23 09:40:39;;;;;;;65.00;34.90;;;;;;;18.62;32.52;100861.46;103546;1301;24144;-28
2022/03/23 09:43:08;;;;;;;59.70;34.10;;;;;;;18.84;32.43;100861.86;103499;1300;24245;-28
2022/03/23 09:48:02;;;;;;;48.10;29.00;;;;;;;19.48;31.59;100855.99;103583;1300;24415;-25
2022/03/23 09:50:28;;;;;;;48.20;23.80;;;;;;;19.79;29.67;100848.86;103590;1299;24118;-24
2022/03/23 09:52:54;;;;;;;32.80;21.80;;;;;;;20.13;29.66;100842.15;103490;1302;24252;-28
2022/03/23 09:55:20;;;;;;;24.40;16.50;;;;;;;20.45;27.40;100835.96;103508;1300;24310;-26
2022/03/23 09:57:46;;;;;;;26.60;14.20;;;;;;;20.77;27.28;100832.21;103587;1300;24258;-24
2022/03/23 10:00:13;;;;;;;37.20;20.50;;;;;;;20.97;25.59;100829.53;103536;1300;22565;-24
2022/03/23 10:02:39;;;;;;;44.00;21.10;;;;;;;21.38;27.66;100826.70;103544;1302;24359;-25
2022/03/23 10:05:12;;;;;;;34.70;21.80;;;;;;;21.98;27.16;100823.95;103553;1300;24353;-24
2022/03/23 10:07:41;;;;;;;;;;;;;;;22.23;25.82;100816.74;103540;1303;25328;-24
2022/03/23 10:10:16;;;;;;;32.90;20.70;;;;;;;22.48;25.50;100819.83;103574;1300;24358;-30
2022/03/23 10:12:48;;;;;;;32.90;21.00;;;;;;;22.64;24.91;100814.14;103623;1300;25933;-28
2022/03/23 10:15:21;;;;;;;45.90;23.00;;;;;;;22.63;24.44;100811.59;103614;1300;22890;-24
2022/03/23 10:17:59;;;;;;;54.30;24.00;;;;;;;22.70;24.62;100807.86;103535;1300;24289;-24
2022/03/23 10:20:25;;;;;;;29.50;21.60;;;;;;;22.77;24.83;100804.05;103570;1300;24227;-25
2022/03/23 10:22:52;;;;;;;36.90;22.50;;;;;;;22.95;25.32;100802.08;103528;1301;24265;-28
2022/03/23 10:25:18;;;;;;;40.00;23.50;;;;;;;23.22;24.43;100799.32;103611;1300;24243;-28
2022/03/23 10:27:44;;;;;;;39.80;24.70;;;;;;;23.21;24.27;100795.83;103580;1300;24246;-25
2022/03/23 10:30:10;;;;;;;33.90;21.50;;;;;;;23.31;23.86;100791.58;103598;1300;24217;-28
2022/03/23 10:32:37;;;;;;;36.80;23.40;;;;;;;23.21;23.81;100791.05;103588;1300;24436;-28
2022/03/23 10:35:09;;;;;;;33.80;22.90;;;;;;;23.46;23.71;100786.80;103532;1300;22718;-24
2022/03/23 10:37:35;;;;;;;28.00;21.20;;;;;;;22.86;22.71;100784.84;103566;1300;24269;-24
2022/03/23 10:40:03;;;;;;;35.10;22.80;;;;;;;22.24;23.03;100784.17;103520;1300;22746;-28
2022/03/23 10:42:32;;;;;;;50.60;26.70;;;;;;;22.25;23.82;100779.98;103549;1302;23123;-28
2022/03/23 10:45:03;;;;;;;33.90;22.80;;;;;;;22.27;23.61;100777.24;103512;1301;24336;-28
2022/03/23 10:47:31;;;;;;;35.90;21.40;;;;;;;22.72;23.59;100773.06;103525;1300;25245;-28
2022/03/23 10:50:07;;;;;;;40.30;21.00;;;;;;;22.92;22.80;100770.99;103571;1302;24367;-24
2022/03/23 10:52:33;;;;;;;28.40;19.30;;;;;;;22.84;22.78;100768.20;103634;1300;25419;-24
2022/03/23 10:55:00;;;;;;;40.60;20.20;;;;;;;23.21;21.97;100764.41;103579;1300;24238;-24
2022/03/23 10:57:33;;;;;;;32.40;20.80;;;;;;;22.96;21.84;100764.23;103553;1300;24172;-24
2022/03/23 10:59:58;;;;;;;33.30;19.20;;;;;;;23.36;22.49;100754.66;103507;1300;24234;-25
2022/03/23 11:02:24;;;;;;;29.50;19.20;;;;;;;23.89;22.48;100747.67;103536;1300;24191;-28
2022/03/23 11:04:53;;;;;;;32.80;16.70;;;;;;;24.33;21.69;100744.67;103500;1302;24356;-28
2022/03/23 11:07:24;;;;;;;27.50;18.00;;;;;;;24.23;20.90;100742.02;103606;1300;23975;-28
2022/03/23 11:17:29;;;;;;;20.30;14.70;;;;;;;24.48;19.66;100730.09;103559;1300;24305;-28
2022/03/23 11:19:55;;;;;;;24.00;14.80;;;;;;;25.02;20.60;100727.14;103537;1300;24248;-28
2022/03/23 11:22:21;;;;;;;14.40;10.10;;;;;;;25.08;18.22;100722.52;103549;1300;24302;-24
2022/03/23 11:24:47;;;;;;;22.60;14.10;;;;;;;25.43;19.78;100719.48;103600;1300;24285;-28
2022/03/23 11:27:17;;;;;;;13.50;9.90;;;;;;;25.70;18.43;100711.70;103542;1300;24216;-28